• Join FlightAware (Why Join?)
  • Login
  • US Flag 
05:20PM EST


 

Airport Tracker/Info


-or-


 

Live Flight TrackerFlight Track Log ✈ UPS1151 ✈ 19-Jul-2013 ✈ KLCK - KSDF

Flight Track Log - Related Links

Times and Time Zones

All times are in EDT time to prevent confusion due to time zone crossing. See the UPS1151 flight status page for this flight to view local times or setup timezone preferences in your user account.

Time Position Orientation Groundspeed Altitude Reporting Facility
EDT Latitude Longitude Course Direction KTS MPH feet Rate Location/Type
11:51PM 39.7990 -82.9500 222° Southwest 168 193 2,300  Level FlightAware
11:52PM 39.7920 -82.9570 218° Southwest 183 211 2,700 1,740 Climbing FlightAware
11:52PM 39.7700 -82.9810 220° Southwest 231 266 3,500 2,160 Climbing FlightAware
11:52PM 39.7560 -82.9970 221° Southwest 244 281 4,400 3,360 Climbing FlightAware
11:53PM 39.7320 -83.0240 221° Southwest 256 295 6,000 3,480 Climbing FlightAware
11:53PM 39.7050 -83.0540 221° Southwest 264 304 7,700 3,420 Climbing FlightAware
11:53PM 39.6970 -83.0690 235° Southwest 269 310 8,300 3,360 Climbing FlightAware
11:54PM 39.6790 -83.1090 240° Southwest 275 316 10,000 2,520 Climbing FlightAware
11:55PM 39.6550 -83.1710 243° Southwest 321 369 11,200 1,680 Climbing FlightAware
11:55PM 39.6210 -83.2550 242° Southwest 372 428 12,400 2,220 Climbing FlightAware
11:56PM 39.5900 -83.3310 242° Southwest 382 440 14,300 2,820 Climbing FlightAware
11:57PM 39.5540 -83.4200 242° Southwest 393 452 16,300 2,580 Climbing FlightAware
11:57PM 39.5190 -83.5060 242° Southwest 400 460 17,900 1,200 Climbing FlightAware
11:58PM 39.4800 -83.5990 242° Southwest 398 458 18,000 60 Climbing FlightAware
11:59PM 39.4440 -83.6870 242° Southwest 395 455 18,000  Level FlightAware
12:00AM 39.4060 -83.7780 242° Southwest 391 450 18,000  Level FlightAware
12:01AM 39.3530 -83.9040 241° Southwest 391 450 18,000  Level FlightAware
12:01AM 39.3260 -83.9670 241° Southwest 391 450 18,000  Level FlightAware
12:02AM 39.2900 -84.0520 241° Southwest 391 450 18,000  Level FlightAware
12:03AM 39.2640 -84.1110 240° Southwest 391 450 18,000  Level FlightAware
12:04AM 39.2280 -84.1950 241° Southwest 391 450 18,000  Level FlightAware
12:04AM 39.2000 -84.2610 241° Southwest 391 450 18,000  Level FlightAware
12:05AM 39.1008 -84.5053 241° Southwest 391 450 18,000  Level Indianapolis Center
12:07AM 39.0500 -84.6333 243° Southwest 407 468 18,000 -960 Level Cincinnati TRACON
12:12AM 38.6210 -85.0850 243° Southwest 12,000 -1,080 Descending FlightAware
12:13AM 38.4890 -85.2120 217° Southwest 331 381 10,700 -840 Descending FlightAware
12:15AM 38.4160 -85.2810 217° Southwest 284 327 9,900 -540 Descending FlightAware
12:15AM 38.3910 -85.3050 217° Southwest 284 327 9,900 -1,500 Level FlightAware
12:15AM 38.3550 -85.3400 217° Southwest 277 319 8,500 -2,040 Descending FlightAware
12:16AM 38.3190 -85.3740 217° Southwest 276 318 7,600 -1,500 Descending FlightAware
12:17AM 38.2810 -85.4100 217° Southwest 270 311 6,700 -1,440 Descending FlightAware
12:17AM 38.2590 -85.4320 218° Southwest 266 306 6,200 -780 Descending FlightAware
12:18AM 38.2270 -85.4620 216° Southwest 235 270 6,000 -600 Descending FlightAware
12:18AM 38.2020 -85.4860 217° Southwest 220 253 5,600 -960 Descending FlightAware
12:19AM 38.1790 -85.5080 217° Southwest 215 247 5,100 -1,200 Descending FlightAware
12:19AM 38.1590 -85.5270 217° Southwest 211 243 4,600 -1,200 Descending FlightAware
12:19AM 38.1450 -85.5340 201° Southwest 215 247 4,300 -1,260 Descending FlightAware
12:19AM 38.1370 -85.5360 191° South 212 244 4,100 -480 Descending FlightAware
12:20AM 38.1050 -85.5450 192° South 209 241 4,000 -540 Descending FlightAware
12:20AM 38.0770 -85.5510 190° South 207 238 3,600 -960 Descending FlightAware
12:21AM 38.0690 -85.5560 206° Southwest 208 239 3,400 -900 Descending FlightAware
12:21AM 38.0600 -85.5720 234° Southwest 187 215 3,200 -540 Descending FlightAware
12:21AM 38.0550 -85.6000 257° West 169 194 3,000 -300 Descending FlightAware
12:22AM 38.0530 -85.6140 260° West 166 191 3,000  Level FlightAware
12:22AM 38.0520 -85.6230 262° West 166 191 3,000 -120 Level FlightAware
12:23AM 38.0500 -85.6660 267° West 163 188 2,900 -420 Descending FlightAware
12:23AM 38.0560 -85.6730 317° Northwest 164 189 2,700 -960 Descending FlightAware
12:23AM 38.0640 -85.6820 318° Northwest 164 189 2,500 -900 Descending FlightAware
12:23AM 38.0820 -85.6950 330° Northwest 161 185 2,100 -840 Descending FlightAware
12:24AM 38.1030 -85.7030 343° North 145 167 1,700 -840 Descending FlightAware
12:24AM 38.1120 -85.7060 345° North 143 165 1,500 -780 Descending FlightAware
12:25AM 38.1300 -85.7120 345° North 146 168 1,200 -660 Descending FlightAware
12:25AM 38.1480 -85.7180 345° North 144 166 900 -780 Descending FlightAware
12:26AM 38.1660 -85.7240 345° North 143 165 500 -480 Descending FlightAware
12:26AM 38.1800 -85.7290 344° North 143 165 500  Level FlightAware
12:27AM 38.1870 -85.7310 347° North 51 59 -960 Descending FlightAware
12:27AM 38.1840 -85.7360 233° Southwest 29 33  Level FlightAware
12:28AM 38.1800 -85.7340 159° South 18 21  Level FlightAware
12:28AM 38.1780 -85.7330 159° South 17 20  Level FlightAware
12:29AM 38.1780 -85.7360 270° West 21 24  Level FlightAware
12:29AM 38.1790 -85.7390 293° West 23 26  Level FlightAware
12:30AM 38.1800 -85.7420 293° West 17 20  Level FlightAware
12:30AM 38.1800 -85.7430 270° West 28 32  Level FlightAware
12:30AM 38.1810 -85.7470 288° West 28 32  Level FlightAware
12:31AM 38.1780 -85.7430 134° Southeast 15 17  Level FlightAware
12:31AM 38.1770 -85.7430 180° South 17 20  Level FlightAware
12:32AM 38.1750 -85.7420 159° South 24 28  Level FlightAware
12:32AM 38.1740 -85.7420 180° South 23 26  Level FlightAware
12:32AM 38.1740 -85.7410 90° East 20 23  Level FlightAware